createdAt,value
2018-06-03T00:01:06.770Z,8.17
2018-06-03T00:03:34.314Z,8.40
2018-06-03T00:06:01.829Z,7.67
2018-06-03T00:08:29.320Z,7.80
2018-06-03T00:10:56.829Z,8.03
2018-06-03T00:13:24.379Z,7.60
2018-06-03T00:15:51.884Z,7.37
2018-06-03T00:18:19.474Z,8.13
2018-06-03T00:20:58.935Z,7.90
2018-06-03T00:23:26.475Z,8.03
2018-06-03T00:25:54.036Z,7.53
2018-06-03T00:28:21.562Z,8.17
2018-06-03T00:30:49.072Z,8.00
2018-06-03T00:33:16.574Z,7.57
2018-06-03T00:35:55.964Z,7.73
2018-06-03T00:38:24.226Z,8.53
2018-06-03T00:40:51.750Z,8.37
2018-06-03T00:43:19.263Z,8.80
2018-06-03T00:45:46.788Z,9.13
2018-06-03T00:48:14.417Z,9.47
2018-06-03T00:50:42.677Z,9.03
2018-06-03T00:53:10.278Z,9.13
2018-06-03T00:55:37.789Z,8.97
2018-06-03T00:58:05.303Z,9.30
2018-06-03T01:00:32.810Z,8.97
2018-06-03T01:03:00.339Z,8.33
2018-06-03T01:05:27.895Z,8.67
2018-06-03T01:07:55.417Z,8.63
2018-06-03T01:10:22.926Z,9.53
2018-06-03T01:12:50.430Z,9.20
2018-06-03T01:15:17.959Z,9.90
2018-06-03T01:17:45.438Z,9.80
2018-06-03T01:20:13.730Z,10.30
2018-06-03T01:22:41.236Z,9.23
2018-06-03T01:25:08.993Z,9.93
2018-06-03T01:27:36.526Z,9.80
2018-06-03T01:30:04.032Z,10.03
2018-06-03T01:32:31.531Z,9.80
2018-06-03T01:34:59.057Z,9.20
2018-06-03T01:37:27.397Z,10.03
2018-06-03T01:39:54.903Z,9.77
2018-06-03T01:42:23.189Z,9.67
2018-06-03T01:44:50.708Z,9.97
2018-06-03T01:47:18.288Z,9.63
2018-06-03T01:49:46.557Z,9.20
2018-06-03T01:52:14.060Z,9.17
2018-06-03T01:54:41.583Z,9.50
2018-06-03T01:57:09.858Z,9.20
2018-06-03T01:59:38.149Z,9.47
2018-06-03T02:02:05.641Z,9.50
2018-06-03T02:04:33.145Z,8.90
2018-06-03T02:07:01.440Z,9.13
2018-06-03T02:09:28.980Z,9.30
2018-06-03T02:11:57.238Z,9.80
2018-06-03T02:14:24.739Z,9.57
2018-06-03T02:16:52.251Z,8.87
2018-06-03T02:19:19.811Z,9.77
2018-06-03T02:21:47.370Z,9.97
2018-06-03T02:24:14.869Z,9.30
2018-06-03T02:26:42.408Z,9.80
2018-06-03T02:29:10.699Z,10.03
2018-06-03T02:31:38.218Z,9.00
2018-06-03T02:34:05.716Z,9.93
2018-06-03T02:36:33.237Z,9.23
2018-06-03T02:39:00.757Z,9.33
2018-06-03T02:41:28.273Z,9.93
2018-06-03T02:43:56.599Z,8.70
2018-06-03T02:46:24.096Z,8.63
2018-06-03T02:48:51.968Z,9.40
2018-06-03T02:51:20.231Z,9.73
2018-06-03T02:53:47.733Z,9.53
2018-06-03T02:56:15.259Z,8.67
2018-06-03T02:58:43.553Z,9.60
2018-06-03T03:01:11.817Z,9.13
2018-06-03T03:03:40.080Z,8.80
2018-06-03T03:06:07.601Z,8.90
2018-06-03T03:08:35.125Z,8.90
2018-06-03T03:11:03.381Z,8.50
2018-06-03T03:13:31.661Z,8.93
2018-06-03T03:15:59.958Z,9.27
2018-06-03T03:18:27.483Z,9.03
2018-06-03T03:20:54.977Z,8.47
2018-06-03T03:23:22.467Z,9.07
2018-06-03T03:25:49.973Z,8.77
2018-06-03T03:28:18.244Z,8.57
2018-06-03T03:30:46.559Z,9.03
2018-06-03T03:33:14.052Z,9.60
2018-06-03T03:35:41.578Z,9.30
2018-06-03T03:38:09.136Z,9.97
2018-06-03T03:40:36.647Z,8.87
2018-06-03T03:43:04.212Z,9.40
2018-06-03T03:45:32.485Z,9.93
2018-06-03T03:48:00.748Z,9.37
2018-06-03T03:50:28.344Z,10.77
2018-06-03T03:52:55.837Z,9.43
2018-06-03T03:55:23.349Z,9.70
2018-06-03T03:57:51.670Z,8.93
2018-06-03T04:00:19.237Z,9.97
2018-06-03T04:02:46.734Z,9.40
2018-06-03T04:05:15.048Z,9.23
2018-06-03T04:07:42.544Z,9.00
2018-06-03T04:10:45.131Z,8.57
2018-06-03T04:13:13.718Z,9.60
2018-06-03T04:15:42.201Z,9.90
2018-06-03T04:18:10.628Z,9.90
2018-06-03T04:20:39.013Z,9.30
2018-06-03T04:23:07.455Z,9.80
2018-06-03T04:25:35.916Z,9.30
2018-06-03T04:28:04.348Z,9.30
2018-06-03T04:30:32.761Z,9.00
2018-06-03T04:33:01.322Z,9.23
2018-06-03T04:35:29.751Z,11.60
2018-06-03T04:37:58.155Z,9.53
2018-06-03T04:40:26.624Z,9.70
2018-06-03T04:42:55.108Z,9.60
2018-06-03T04:45:23.553Z,9.60
2018-06-03T04:47:51.946Z,10.57
2018-06-03T04:50:20.356Z,9.70
2018-06-03T04:52:48.744Z,9.03
2018-06-03T04:55:17.180Z,9.20
2018-06-03T04:57:45.726Z,9.07
2018-06-03T05:00:14.128Z,8.80
2018-06-03T05:02:42.566Z,9.00
2018-06-03T05:05:10.993Z,9.60
2018-06-03T05:07:39.423Z,9.57
2018-06-03T05:10:07.802Z,9.63
2018-06-03T05:12:36.244Z,9.73
2018-06-03T05:15:04.693Z,9.33
2018-06-03T05:17:33.174Z,9.57
2018-06-03T05:20:01.608Z,9.97
2018-06-03T05:22:29.736Z,10.27
2018-06-03T05:24:58.145Z,11.13
2018-06-03T05:27:26.541Z,11.20
2018-06-03T05:29:55.144Z,11.10
2018-06-03T05:32:23.543Z,9.67
2018-06-03T05:34:51.993Z,10.40
2018-06-03T05:37:20.403Z,9.10
2018-06-03T05:39:48.924Z,9.53
2018-06-03T05:42:17.377Z,8.73
2018-06-03T05:44:45.775Z,8.83
2018-06-03T05:47:14.225Z,9.17
2018-06-03T05:49:42.647Z,8.60
2018-06-03T05:52:11.111Z,9.37
2018-06-03T05:54:39.531Z,8.90
2018-06-03T05:57:07.946Z,9.03
2018-06-03T05:59:36.364Z,8.43
2018-06-03T06:02:04.943Z,8.63
2018-06-03T06:04:33.622Z,8.70
2018-06-03T06:07:02.011Z,8.70
2018-06-03T06:09:30.476Z,7.83
2018-06-03T06:11:59.100Z,8.70
2018-06-03T06:14:27.522Z,8.70
2018-06-03T06:16:55.980Z,8.13
2018-06-03T06:19:24.588Z,8.70
2018-06-03T06:21:53.027Z,7.90
2018-06-03T06:24:21.480Z,7.73
2018-06-03T06:26:49.893Z,7.67
2018-06-03T06:29:18.323Z,7.90
2018-06-03T06:31:46.845Z,7.37
2018-06-03T06:34:15.429Z,6.97
2018-06-03T06:36:43.832Z,7.30
2018-06-03T06:39:12.463Z,6.80
2018-06-03T06:41:41.172Z,7.13
2018-06-03T06:44:09.570Z,6.70
2018-06-03T06:46:38.225Z,6.47
2018-06-03T06:49:06.694Z,6.37
2018-06-03T06:51:35.362Z,6.27
2018-06-03T06:54:03.854Z,5.90
2018-06-03T06:56:32.323Z,4.80
2018-06-03T06:59:00.776Z,5.50
2018-06-03T07:01:29.232Z,5.90
2018-06-03T07:03:57.973Z,5.70
2018-06-03T07:06:26.444Z,5.60
2018-06-03T07:08:54.890Z,5.60
2018-06-03T07:11:23.414Z,5.60
2018-06-03T07:13:51.823Z,5.37
2018-06-03T07:16:20.301Z,4.80
2018-06-03T07:18:48.767Z,5.30
2018-06-03T07:21:17.309Z,5.23
2018-06-03T07:23:45.821Z,4.63
2018-06-03T07:26:14.270Z,5.83
2018-06-03T07:28:42.752Z,5.17
2018-06-03T07:31:11.502Z,8.43
2018-06-03T07:33:40.037Z,4.80
2018-06-03T07:36:08.677Z,4.53
2018-06-03T07:38:37.161Z,4.63
2018-06-03T07:41:05.891Z,5.00
2018-06-03T07:43:34.378Z,4.73
2018-06-03T07:46:02.910Z,4.20
2018-06-03T07:48:31.356Z,4.93
2018-06-03T07:50:59.835Z,4.27
2018-06-03T07:53:28.261Z,4.70
2018-06-03T07:55:56.669Z,4.37
2018-06-03T07:58:25.070Z,4.03
2018-06-03T08:00:53.480Z,3.73
2018-06-03T08:03:21.951Z,4.30
2018-06-03T08:05:50.360Z,4.87
2018-06-03T08:08:18.827Z,4.40
2018-06-03T08:10:47.824Z,5.67
2018-06-03T08:13:20.498Z,4.20
2018-06-03T08:15:49.253Z,3.80
2018-06-03T08:18:17.768Z,3.87
2018-06-03T08:20:46.333Z,3.87
2018-06-03T08:23:14.443Z,4.17
2018-06-03T08:25:42.902Z,3.70
2018-06-03T08:28:11.378Z,3.70
2018-06-03T08:30:40.038Z,3.90
2018-06-03T08:33:08.341Z,3.77
2018-06-03T08:35:36.823Z,3.43
2018-06-03T08:38:05.402Z,3.87
2018-06-03T08:40:34.046Z,3.60
2018-06-03T08:43:02.833Z,3.77
2018-06-03T08:45:31.363Z,3.63
2018-06-03T08:47:59.841Z,3.13
2018-06-03T08:50:28.264Z,3.00
2018-06-03T08:52:56.809Z,3.30
2018-06-03T08:55:25.294Z,3.00
2018-06-03T08:57:53.890Z,3.17
2018-06-03T09:00:22.369Z,2.90
2018-06-03T09:02:51.032Z,3.20
2018-06-03T09:05:19.691Z,3.40
2018-06-03T09:07:47.839Z,3.30
2018-06-03T09:10:16.330Z,3.40
2018-06-03T09:12:44.853Z,4.83
2018-06-03T09:15:13.314Z,3.23
2018-06-03T09:17:41.914Z,3.37
2018-06-03T09:20:10.344Z,3.33
2018-06-03T09:22:38.802Z,3.57
2018-06-03T09:25:07.200Z,3.53
2018-06-03T09:27:35.671Z,3.23
2018-06-03T09:30:04.476Z,3.03
2018-06-03T09:32:32.926Z,3.17
2018-06-03T09:35:01.407Z,3.40
2018-06-03T09:37:29.881Z,3.07
2018-06-03T09:39:58.557Z,3.30
2018-06-03T09:42:27.097Z,3.33
2018-06-03T09:44:55.259Z,3.60
2018-06-03T09:47:23.707Z,3.43
2018-06-03T09:49:52.333Z,3.33
2018-06-03T09:52:20.778Z,3.20
2018-06-03T09:54:49.201Z,3.10
2018-06-03T09:57:17.486Z,2.93
2018-06-03T09:59:45.987Z,3.10
2018-06-03T10:02:14.585Z,3.47
2018-06-03T10:04:43.039Z,2.90
2018-06-03T10:07:11.729Z,3.30
2018-06-03T10:09:40.230Z,3.50
2018-06-03T10:12:08.660Z,3.13
2018-06-03T10:14:37.216Z,3.27
2018-06-03T10:17:05.723Z,3.70
2018-06-03T10:19:34.449Z,2.93
2018-06-03T10:22:03.504Z,3.30
2018-06-03T10:24:31.769Z,3.47
2018-06-03T10:27:00.490Z,3.60
2018-06-03T10:29:29.022Z,3.43
2018-06-03T10:31:57.725Z,3.20
2018-06-03T10:34:25.961Z,3.40
2018-06-03T10:36:54.416Z,3.50
2018-06-03T10:39:22.971Z,3.43
2018-06-03T10:41:51.737Z,3.70
2018-06-03T10:44:20.164Z,3.30
2018-06-03T10:46:48.747Z,3.67
2018-06-03T10:49:17.186Z,3.40
2018-06-03T10:51:45.612Z,3.90
2018-06-03T10:54:14.119Z,3.27
2018-06-03T10:56:42.580Z,3.23
2018-06-03T10:59:11.106Z,3.40
2018-06-03T11:01:40.217Z,3.30
2018-06-03T11:04:08.748Z,3.20
2018-06-03T11:06:37.315Z,3.73
2018-06-03T11:09:07.133Z,3.10
2018-06-03T11:11:35.713Z,3.30
2018-06-03T11:14:04.394Z,3.97
2018-06-03T11:16:33.074Z,3.83
2018-06-03T11:19:01.569Z,4.97
2018-06-03T11:21:30.110Z,3.83
2018-06-03T11:23:58.876Z,3.87
2018-06-03T11:26:27.399Z,3.70
2018-06-03T11:28:56.307Z,3.43
2018-06-03T11:31:24.790Z,2.77
2018-06-03T11:33:53.326Z,3.07
2018-06-03T11:36:21.787Z,2.97
2018-06-03T11:38:50.384Z,3.00
2018-06-03T11:41:19.488Z,2.50
2018-06-03T11:43:48.012Z,2.70
2018-06-03T11:46:16.689Z,2.90
2018-06-03T11:48:45.231Z,2.40
2018-06-03T11:51:13.736Z,2.60
2018-06-03T11:53:42.211Z,2.90
2018-06-03T11:56:11.537Z,2.93
2018-06-03T11:58:54.938Z,3.37
2018-06-03T12:01:24.159Z,2.90
2018-06-03T12:03:52.797Z,3.10
2018-06-03T12:06:21.328Z,3.20
2018-06-03T12:08:49.796Z,2.53
2018-06-03T12:11:18.308Z,2.83
2018-06-03T12:13:46.751Z,3.00
2018-06-03T12:16:15.229Z,3.17
2018-06-03T12:18:43.676Z,2.50
2018-06-03T12:21:12.141Z,2.47
2018-06-03T12:23:40.777Z,2.83
2018-06-03T12:26:09.989Z,2.80
2018-06-03T12:28:38.697Z,2.80
2018-06-03T12:31:07.081Z,2.87
2018-06-03T12:33:35.576Z,2.80
2018-06-03T12:36:04.253Z,3.03
2018-06-03T12:38:32.771Z,2.67
2018-06-03T12:41:01.397Z,2.70
2018-06-03T12:43:29.877Z,2.60
2018-06-03T12:45:58.621Z,2.70
2018-06-03T12:48:27.184Z,2.40
2018-06-03T12:50:55.667Z,2.70
2018-06-03T12:53:24.153Z,2.47
2018-06-03T12:55:52.653Z,2.67
2018-06-03T12:58:21.072Z,2.57
2018-06-03T13:00:49.631Z,2.33
2018-06-03T13:03:18.128Z,2.70
2018-06-03T13:05:46.784Z,2.43
2018-06-03T13:08:15.285Z,2.40
2018-06-03T13:10:43.822Z,2.70
2018-06-03T13:13:12.321Z,2.20
2018-06-03T13:15:40.970Z,2.47
2018-06-03T13:18:09.545Z,2.33
2018-06-03T13:20:37.944Z,2.50
2018-06-03T13:23:06.510Z,2.70
2018-06-03T13:25:35.030Z,2.40
2018-06-03T13:28:03.515Z,2.40
2018-06-03T13:30:31.965Z,2.70
2018-06-03T13:33:00.435Z,2.33
2018-06-03T13:35:28.950Z,2.43
2018-06-03T13:37:57.462Z,2.60
2018-06-03T13:40:25.903Z,2.20
2018-06-03T13:42:54.401Z,2.50
2018-06-03T13:45:22.873Z,2.90
2018-06-03T13:47:51.465Z,2.70
2018-06-03T13:50:20.015Z,2.53
2018-06-03T13:52:48.520Z,2.87
2018-06-03T13:55:17.163Z,2.83
2018-06-03T13:57:45.694Z,2.47
2018-06-03T14:00:14.157Z,2.40
2018-06-03T14:02:42.882Z,2.70
2018-06-03T14:05:11.735Z,2.70
2018-06-03T14:07:40.331Z,2.50
2018-06-03T14:10:08.915Z,3.13
2018-06-03T14:12:37.501Z,2.80
2018-06-03T14:15:06.057Z,2.87
2018-06-03T14:17:34.244Z,2.87
2018-06-03T14:20:02.784Z,3.17
2018-06-03T14:22:31.257Z,3.03
2018-06-03T14:24:59.804Z,2.80
2018-06-03T14:27:28.296Z,2.87
2018-06-03T14:29:56.837Z,2.60
2018-06-03T14:32:25.318Z,2.40
2018-06-03T14:34:53.820Z,3.00
2018-06-03T14:37:22.361Z,3.10
2018-06-03T14:39:50.924Z,3.10
2018-06-03T14:42:19.605Z,2.77
2018-06-03T14:44:48.014Z,2.80
2018-06-03T14:47:16.573Z,2.70
2018-06-03T14:49:45.012Z,2.67
2018-06-03T14:52:13.525Z,2.80
2018-06-03T14:54:42.058Z,2.77
2018-06-03T14:57:17.150Z,2.87
2018-06-03T14:59:45.653Z,2.70
2018-06-03T15:02:14.231Z,2.40
2018-06-03T15:04:42.398Z,2.67
2018-06-03T15:07:10.826Z,2.70
2018-06-03T15:09:39.581Z,2.80
2018-06-03T15:12:08.090Z,2.80
2018-06-03T15:14:36.565Z,2.60
2018-06-03T15:17:05.062Z,2.93
2018-06-03T15:19:33.637Z,2.53
2018-06-03T15:22:02.113Z,2.57
2018-06-03T15:24:30.577Z,2.90
2018-06-03T15:26:59.284Z,3.00
2018-06-03T15:29:27.797Z,3.50
2018-06-03T15:31:56.940Z,3.00
2018-06-03T15:34:25.586Z,3.40
2018-06-03T15:36:54.108Z,2.93
2018-06-03T15:39:22.837Z,2.90
2018-06-03T15:41:51.393Z,2.80
2018-06-03T15:44:19.820Z,2.67
2018-06-03T15:46:48.304Z,3.30
2018-06-03T15:49:16.966Z,3.13
2018-06-03T15:51:45.441Z,2.80
2018-06-03T15:54:13.966Z,3.00
2018-06-03T15:56:42.447Z,3.00
2018-06-03T15:59:10.901Z,2.80
2018-06-03T16:01:39.462Z,3.13
2018-06-03T16:04:08.096Z,3.00
2018-06-03T16:06:36.775Z,2.77
2018-06-03T16:09:07.323Z,2.83
2018-06-03T16:11:36.023Z,3.17
2018-06-03T16:14:04.611Z,3.03
2018-06-03T16:16:33.161Z,3.03
2018-06-03T16:19:01.763Z,2.87
2018-06-03T16:21:30.284Z,3.17
2018-06-03T16:23:58.771Z,3.03
2018-06-03T16:26:27.229Z,2.73
2018-06-03T16:28:55.693Z,4.53
2018-06-03T16:31:24.221Z,2.90
2018-06-03T16:33:52.776Z,2.80
2018-06-03T16:36:21.303Z,2.53
2018-06-03T16:38:49.764Z,3.00
2018-06-03T16:41:18.350Z,2.73
2018-06-03T16:43:46.814Z,3.03
2018-06-03T16:46:15.388Z,2.87
2018-06-03T16:48:43.886Z,2.60
2018-06-03T16:51:12.463Z,2.80
2018-06-03T16:53:41.029Z,2.77
2018-06-03T16:56:09.657Z,3.03
2018-06-03T16:58:38.141Z,2.83
2018-06-03T17:01:06.830Z,3.23
2018-06-03T17:03:35.401Z,3.03
2018-06-03T17:06:04.117Z,2.73
2018-06-03T17:08:32.569Z,2.53
2018-06-03T17:11:01.156Z,2.57
2018-06-03T17:13:30.359Z,2.90
2018-06-03T17:15:59.008Z,2.90
2018-06-03T17:18:27.496Z,2.53
2018-06-03T17:20:55.793Z,3.00
2018-06-03T17:23:24.357Z,2.53
2018-06-03T17:25:52.845Z,2.80
2018-06-03T17:28:21.498Z,3.07
2018-06-03T17:30:49.944Z,4.57
2018-06-03T17:33:18.497Z,3.00
2018-06-03T17:35:47.028Z,2.43
2018-06-03T17:38:15.632Z,2.90
2018-06-03T17:40:44.554Z,3.10
2018-06-03T17:43:13.033Z,2.83
2018-06-03T17:45:41.514Z,2.77
2018-06-03T17:48:09.997Z,2.60
2018-06-03T17:50:38.529Z,3.00
2018-06-03T17:53:07.046Z,2.97
2018-06-03T17:55:35.505Z,2.60
2018-06-03T17:58:03.948Z,3.00
2018-06-03T18:00:32.454Z,4.33
2018-06-03T18:03:00.941Z,3.20
2018-06-03T18:05:29.538Z,2.73
2018-06-03T18:07:58.036Z,2.90
2018-06-03T18:10:26.595Z,2.80
2018-06-03T18:12:55.143Z,3.33
2018-06-03T18:15:23.816Z,3.07
2018-06-03T18:17:52.340Z,2.73
2018-06-03T18:20:20.860Z,2.87
2018-06-03T18:22:49.311Z,2.87
2018-06-03T18:25:17.431Z,3.03
2018-06-03T18:27:46.006Z,3.23
2018-06-03T18:30:14.459Z,2.97
2018-06-03T18:32:42.940Z,3.00
2018-06-03T18:35:11.474Z,2.93
2018-06-03T18:37:40.026Z,3.30
2018-06-03T18:40:08.601Z,8.83
2018-06-03T18:42:37.063Z,3.27
2018-06-03T18:45:05.577Z,3.27
2018-06-03T18:47:34.110Z,3.20
2018-06-03T18:50:02.730Z,3.27
2018-06-03T18:52:31.364Z,3.10
2018-06-03T18:54:59.963Z,3.67
2018-06-03T18:57:28.525Z,3.90
2018-06-03T18:59:57.056Z,3.70
2018-06-03T19:02:25.501Z,3.30
2018-06-03T19:04:54.958Z,3.30
2018-06-03T19:07:23.422Z,3.50
2018-06-03T19:09:52.005Z,3.00
2018-06-03T19:12:20.547Z,3.50
2018-06-03T19:14:48.951Z,3.13
2018-06-03T19:17:17.082Z,4.00
2018-06-03T19:19:45.629Z,3.30
2018-06-03T19:22:14.129Z,3.87
2018-06-03T19:24:42.664Z,3.90
2018-06-03T19:27:11.144Z,4.47
2018-06-03T19:29:39.809Z,3.73
2018-06-03T19:32:08.312Z,3.47
2018-06-03T19:34:36.907Z,3.73
2018-06-03T19:37:05.842Z,3.83
2018-06-03T19:39:34.572Z,3.60
2018-06-03T19:42:02.812Z,3.67
2018-06-03T19:44:31.408Z,3.70
2018-06-03T19:46:59.924Z,3.97
2018-06-03T19:49:28.447Z,4.17
2018-06-03T19:51:57.109Z,4.10
2018-06-03T19:54:25.657Z,4.37
2018-06-03T19:56:53.835Z,5.33
2018-06-03T19:59:22.385Z,4.70
2018-06-03T20:01:50.991Z,5.03
2018-06-03T20:04:19.422Z,4.77
2018-06-03T20:06:47.960Z,5.17
2018-06-03T20:09:19.509Z,4.90
2018-06-03T20:11:48.134Z,4.60
2018-06-03T20:14:20.437Z,4.67
2018-06-03T20:16:49.070Z,5.27
2018-06-03T20:19:17.516Z,4.50
2018-06-03T20:21:46.035Z,4.83
2018-06-03T20:24:14.508Z,4.37
2018-06-03T20:26:49.346Z,4.80
2018-06-03T20:29:17.911Z,4.60
2018-06-03T20:31:46.780Z,5.13
2018-06-03T20:34:15.494Z,5.17
2018-06-03T20:36:44.105Z,5.00
2018-06-03T20:39:12.804Z,5.97
2018-06-03T20:41:41.700Z,6.17
2018-06-03T20:44:10.283Z,5.30
2018-06-03T20:46:38.741Z,5.10
2018-06-03T20:49:07.160Z,6.20
2018-06-03T20:51:36.278Z,6.20
2018-06-03T20:54:04.732Z,6.33
2018-06-03T20:56:33.185Z,6.10
2018-06-03T20:59:03.141Z,6.40
2018-06-03T21:01:32.508Z,5.37
2018-06-03T21:04:01.107Z,5.57
2018-06-03T21:06:29.825Z,5.53
2018-06-03T21:08:58.870Z,5.53
2018-06-03T21:11:27.473Z,5.20
2018-06-03T21:13:55.941Z,5.63
2018-06-03T21:16:25.143Z,6.00
2018-06-03T21:18:53.600Z,6.10
2018-06-03T21:21:22.155Z,5.93
2018-06-03T21:23:50.761Z,5.60
2018-06-03T21:26:19.321Z,5.57
2018-06-03T21:28:47.820Z,5.43
2018-06-03T21:31:16.274Z,4.97
2018-06-03T21:33:44.673Z,5.77
2018-06-03T21:36:13.065Z,5.07
2018-06-03T21:38:41.570Z,5.43
2018-06-03T21:41:10.273Z,5.00
2018-06-03T21:43:38.690Z,5.73
2018-06-03T21:46:07.128Z,5.43
2018-06-03T21:48:35.583Z,5.87
2018-06-03T21:51:03.954Z,6.10
2018-06-03T21:53:32.353Z,6.70
2018-06-03T21:56:00.922Z,5.73
2018-06-03T21:58:29.387Z,6.20
2018-06-03T22:00:57.940Z,6.13
2018-06-03T22:03:26.430Z,6.23
2018-06-03T22:05:54.869Z,6.20
2018-06-03T22:08:23.294Z,5.90
2018-06-03T22:10:51.836Z,6.83
2018-06-03T22:13:20.242Z,6.53
2018-06-03T22:15:49.241Z,5.90
2018-06-03T22:18:17.689Z,6.33
2018-06-03T22:20:46.064Z,6.10
2018-06-03T22:23:14.477Z,6.40
2018-06-03T22:25:42.896Z,5.87
2018-06-03T22:28:11.327Z,5.90
2018-06-03T22:30:39.772Z,5.93
2018-06-03T22:33:08.237Z,6.40
2018-06-03T22:35:36.696Z,5.73
2018-06-03T22:38:05.282Z,6.47
2018-06-03T22:40:33.689Z,6.27
2018-06-03T22:43:02.152Z,6.30
2018-06-03T22:45:30.545Z,6.60
2018-06-03T22:47:58.985Z,6.20
2018-06-03T22:50:27.377Z,6.03
2018-06-03T22:52:55.852Z,6.40
2018-06-03T22:55:24.290Z,5.80
2018-06-03T22:57:53.713Z,6.10
2018-06-03T23:00:29.855Z,6.90
2018-06-03T23:03:03.734Z,6.20
2018-06-03T23:05:32.193Z,6.80
2018-06-03T23:08:00.615Z,6.60
2018-06-03T23:10:29.057Z,6.70
2018-06-03T23:12:57.431Z,6.63
2018-06-03T23:15:25.836Z,7.57
2018-06-03T23:17:54.346Z,7.40
2018-06-03T23:20:22.728Z,7.23
2018-06-03T23:22:51.312Z,7.87
2018-06-03T23:25:19.794Z,7.30
2018-06-03T23:27:48.322Z,7.03
2018-06-03T23:30:16.839Z,7.10
2018-06-03T23:32:45.344Z,6.93
2018-06-03T23:35:13.864Z,7.10
2018-06-03T23:37:42.269Z,7.20
2018-06-03T23:40:10.713Z,7.10
2018-06-03T23:42:39.136Z,7.13
2018-06-03T23:45:07.619Z,7.30
2018-06-03T23:47:36.074Z,6.87
2018-06-03T23:50:04.643Z,7.23
2018-06-03T23:52:33.063Z,7.17
2018-06-03T23:55:01.576Z,7.80
2018-06-03T23:57:29.988Z,7.37
2018-06-03T23:59:58.433Z,7.60
